sensor_id;sensor_type;location;lat;lon;timestamp;P1;durP1;ratioP1;P2;durP2;ratioP2
15049;SDS011;7622;42.724;23.250;2023-03-24T00:02:00;27.97;;;14.97;;
15049;SDS011;7622;42.724;23.250;2023-03-24T00:04:27;22.30;;;15.07;;
15049;SDS011;7622;42.724;23.250;2023-03-24T00:06:54;20.47;;;13.50;;
15049;SDS011;7622;42.724;23.250;2023-03-24T00:09:21;22.07;;;13.67;;
15049;SDS011;7622;42.724;23.250;2023-03-24T00:11:49;22.30;;;14.07;;
15049;SDS011;7622;42.724;23.250;2023-03-24T00:14:16;22.17;;;13.93;;
15049;SDS011;7622;42.724;23.250;2023-03-24T00:16:43;21.27;;;12.97;;
15049;SDS011;7622;42.724;23.250;2023-03-24T00:19:11;23.43;;;13.77;;
15049;SDS011;7622;42.724;23.250;2023-03-24T00:21:39;23.43;;;14.90;;
15049;SDS011;7622;42.724;23.250;2023-03-24T00:24:07;26.70;;;15.30;;
15049;SDS011;7622;42.724;23.250;2023-03-24T00:26:36;19.50;;;13.80;;
15049;SDS011;7622;42.724;23.250;2023-03-24T00:29:06;27.67;;;15.83;;
15049;SDS011;7622;42.724;23.250;2023-03-24T00:31:35;24.23;;;14.70;;
15049;SDS011;7622;42.724;23.250;2023-03-24T00:34:04;24.40;;;14.80;;
15049;SDS011;7622;42.724;23.250;2023-03-24T00:36:32;24.17;;;14.70;;
15049;SDS011;7622;42.724;23.250;2023-03-24T00:39:00;21.60;;;14.97;;
15049;SDS011;7622;42.724;23.250;2023-03-24T00:41:27;21.67;;;14.93;;
15049;SDS011;7622;42.724;23.250;2023-03-24T00:43:55;26.60;;;14.33;;
15049;SDS011;7622;42.724;23.250;2023-03-24T00:46:25;26.53;;;14.93;;
15049;SDS011;7622;42.724;23.250;2023-03-24T00:48:55;24.03;;;14.83;;
15049;SDS011;7622;42.724;23.250;2023-03-24T00:51:26;21.60;;;14.53;;
15049;SDS011;7622;42.724;23.250;2023-03-24T00:53:54;21.30;;;14.90;;
15049;SDS011;7622;42.724;23.250;2023-03-24T00:56:23;23.33;;;15.27;;
15049;SDS011;7622;42.724;23.250;2023-03-24T00:58:53;19.47;;;14.70;;
15049;SDS011;7622;42.724;23.250;2023-03-24T01:01:22;23.80;;;15.00;;
15049;SDS011;7622;42.724;23.250;2023-03-24T01:03:53;26.77;;;15.00;;
15049;SDS011;7622;42.724;23.250;2023-03-24T01:06:21;22.07;;;14.70;;
15049;SDS011;7622;42.724;23.250;2023-03-24T01:08:49;22.77;;;14.60;;
15049;SDS011;7622;42.724;23.250;2023-03-24T01:11:18;20.03;;;14.10;;
15049;SDS011;7622;42.724;23.250;2023-03-24T01:13:48;19.93;;;14.13;;
15049;SDS011;7622;42.724;23.250;2023-03-24T01:16:16;21.67;;;14.77;;
15049;SDS011;7622;42.724;23.250;2023-03-24T01:18:44;26.10;;;14.70;;
15049;SDS011;7622;42.724;23.250;2023-03-24T01:21:11;20.50;;;14.00;;
15049;SDS011;7622;42.724;23.250;2023-03-24T01:23:38;22.23;;;14.67;;
15049;SDS011;7622;42.724;23.250;2023-03-24T01:26:08;21.80;;;15.03;;
15049;SDS011;7622;42.724;23.250;2023-03-24T01:28:36;23.33;;;15.17;;
15049;SDS011;7622;42.724;23.250;2023-03-24T01:31:05;19.40;;;13.70;;
15049;SDS011;7622;42.724;23.250;2023-03-24T01:33:34;23.90;;;14.40;;
15049;SDS011;7622;42.724;23.250;2023-03-24T01:36:03;27.30;;;14.47;;
15049;SDS011;7622;42.724;23.250;2023-03-24T01:38:31;22.47;;;14.63;;
15049;SDS011;7622;42.724;23.250;2023-03-24T01:40:58;22.80;;;14.13;;
15049;SDS011;7622;42.724;23.250;2023-03-24T01:43:27;20.53;;;13.83;;
15049;SDS011;7622;42.724;23.250;2023-03-24T01:45:57;22.27;;;14.43;;
15049;SDS011;7622;42.724;23.250;2023-03-24T01:48:29;22.23;;;15.03;;
15049;SDS011;7622;42.724;23.250;2023-03-24T01:51:02;21.33;;;14.03;;
15049;SDS011;7622;42.724;23.250;2023-03-24T01:53:36;23.37;;;14.60;;
15049;SDS011;7622;42.724;23.250;2023-03-24T01:56:07;23.17;;;15.07;;
15049;SDS011;7622;42.724;23.250;2023-03-24T01:58:37;24.03;;;15.27;;
15049;SDS011;7622;42.724;23.250;2023-03-24T02:01:08;24.03;;;15.13;;
15049;SDS011;7622;42.724;23.250;2023-03-24T02:03:35;23.43;;;14.33;;
15049;SDS011;7622;42.724;23.250;2023-03-24T02:06:03;21.23;;;14.80;;
15049;SDS011;7622;42.724;23.250;2023-03-24T02:08:34;22.07;;;15.17;;
15049;SDS011;7622;42.724;23.250;2023-03-24T02:11:04;24.37;;;15.50;;
15049;SDS011;7622;42.724;23.250;2023-03-24T02:13:31;24.23;;;15.53;;
15049;SDS011;7622;42.724;23.250;2023-03-24T02:16:12;24.07;;;15.50;;
15049;SDS011;7622;42.724;23.250;2023-03-24T02:18:52;23.40;;;14.63;;
15049;SDS011;7622;42.724;23.250;2023-03-24T02:21:41;25.40;;;15.77;;
15049;SDS011;7622;42.724;23.250;2023-03-24T02:27:56;23.23;;;15.20;;
15049;SDS011;7622;42.724;23.250;2023-03-24T02:33:52;26.73;;;17.40;;
15049;SDS011;7622;42.724;23.250;2023-03-24T02:40:15;28.10;;;16.60;;
15049;SDS011;7622;42.724;23.250;2023-03-24T02:42:53;27.43;;;16.00;;
15049;SDS011;7622;42.724;23.250;2023-03-24T02:45:34;23.40;;;16.83;;
15049;SDS011;7622;42.724;23.250;2023-03-24T02:48:16;26.00;;;16.70;;
15049;SDS011;7622;42.724;23.250;2023-03-24T02:50:49;24.00;;;15.77;;
15049;SDS011;7622;42.724;23.250;2023-03-24T02:53:21;25.27;;;16.10;;
15049;SDS011;7622;42.724;23.250;2023-03-24T02:55:58;32.47;;;17.07;;
15049;SDS011;7622;42.724;23.250;2023-03-24T02:58:30;23.33;;;15.30;;
15049;SDS011;7622;42.724;23.250;2023-03-24T03:01:04;22.40;;;15.83;;
15049;SDS011;7622;42.724;23.250;2023-03-24T03:03:35;26.23;;;15.83;;
15049;SDS011;7622;42.724;23.250;2023-03-24T03:06:06;23.03;;;15.57;;
15049;SDS011;7622;42.724;23.250;2023-03-24T03:08:38;28.57;;;15.97;;
15049;SDS011;7622;42.724;23.250;2023-03-24T03:11:11;28.03;;;15.40;;
15049;SDS011;7622;42.724;23.250;2023-03-24T03:13:41;21.03;;;14.60;;
15049;SDS011;7622;42.724;23.250;2023-03-24T03:16:15;26.23;;;16.60;;
15049;SDS011;7622;42.724;23.250;2023-03-24T03:18:47;25.20;;;15.23;;
15049;SDS011;7622;42.724;23.250;2023-03-24T03:21:17;25.43;;;16.23;;
15049;SDS011;7622;42.724;23.250;2023-03-24T03:23:48;24.63;;;15.63;;
15049;SDS011;7622;42.724;23.250;2023-03-24T03:26:25;25.67;;;16.00;;
15049;SDS011;7622;42.724;23.250;2023-03-24T03:28:57;24.23;;;15.73;;
15049;SDS011;7622;42.724;23.250;2023-03-24T03:31:30;25.23;;;15.27;;
15049;SDS011;7622;42.724;23.250;2023-03-24T03:34:03;22.87;;;14.47;;
15049;SDS011;7622;42.724;23.250;2023-03-24T03:36:37;23.50;;;15.27;;
15049;SDS011;7622;42.724;23.250;2023-03-24T03:39:12;22.83;;;14.97;;
15049;SDS011;7622;42.724;23.250;2023-03-24T03:41:45;25.10;;;14.77;;
15049;SDS011;7622;42.724;23.250;2023-03-24T03:44:12;25.27;;;15.13;;
15049;SDS011;7622;42.724;23.250;2023-03-24T03:46:39;23.83;;;15.13;;
15049;SDS011;7622;42.724;23.250;2023-03-24T03:49:07;24.83;;;15.43;;
15049;SDS011;7622;42.724;23.250;2023-03-24T03:51:34;28.80;;;16.87;;
15049;SDS011;7622;42.724;23.250;2023-03-24T03:54:02;25.37;;;15.33;;
15049;SDS011;7622;42.724;23.250;2023-03-24T03:56:32;24.63;;;16.23;;
15049;SDS011;7622;42.724;23.250;2023-03-24T03:59:02;28.13;;;15.73;;
15049;SDS011;7622;42.724;23.250;2023-03-24T04:01:31;30.80;;;16.07;;
15049;SDS011;7622;42.724;23.250;2023-03-24T04:04:09;21.43;;;15.20;;
15049;SDS011;7622;42.724;23.250;2023-03-24T04:07:07;26.47;;;16.60;;
15049;SDS011;7622;42.724;23.250;2023-03-24T04:09:43;27.03;;;17.37;;
15049;SDS011;7622;42.724;23.250;2023-03-24T04:12:24;29.20;;;16.00;;
15049;SDS011;7622;42.724;23.250;2023-03-24T04:15:13;27.80;;;16.60;;
15049;SDS011;7622;42.724;23.250;2023-03-24T04:18:00;26.63;;;15.37;;
15049;SDS011;7622;42.724;23.250;2023-03-24T04:20:47;23.40;;;15.17;;
15049;SDS011;7622;42.724;23.250;2023-03-24T04:23:24;25.00;;;15.60;;
15049;SDS011;7622;42.724;23.250;2023-03-24T04:26:03;25.03;;;15.80;;
15049;SDS011;7622;42.724;23.250;2023-03-24T04:28:39;23.83;;;15.67;;
15049;SDS011;7622;42.724;23.250;2023-03-24T04:31:15;31.87;;;17.50;;
15049;SDS011;7622;42.724;23.250;2023-03-24T04:33:50;27.87;;;16.47;;
15049;SDS011;7622;42.724;23.250;2023-03-24T04:36:24;32.13;;;17.10;;
15049;SDS011;7622;42.724;23.250;2023-03-24T04:38:56;27.20;;;16.33;;
15049;SDS011;7622;42.724;23.250;2023-03-24T04:41:26;25.20;;;15.63;;
15049;SDS011;7622;42.724;23.250;2023-03-24T04:43:55;29.07;;;15.87;;
15049;SDS011;7622;42.724;23.250;2023-03-24T04:46:25;28.57;;;16.70;;
15049;SDS011;7622;42.724;23.250;2023-03-24T04:48:52;25.20;;;15.57;;
15049;SDS011;7622;42.724;23.250;2023-03-24T04:51:19;23.10;;;14.67;;
15049;SDS011;7622;42.724;23.250;2023-03-24T04:53:46;24.13;;;15.83;;
15049;SDS011;7622;42.724;23.250;2023-03-24T04:58:58;26.77;;;14.63;;
15049;SDS011;7622;42.724;23.250;2023-03-24T05:01:27;24.93;;;15.40;;
15049;SDS011;7622;42.724;23.250;2023-03-24T05:03:55;23.70;;;15.33;;
15049;SDS011;7622;42.724;23.250;2023-03-24T05:06:22;34.60;;;18.43;;
15049;SDS011;7622;42.724;23.250;2023-03-24T05:08:49;27.13;;;17.90;;
15049;SDS011;7622;42.724;23.250;2023-03-24T05:11:16;31.23;;;18.50;;
15049;SDS011;7622;42.724;23.250;2023-03-24T05:13:43;27.73;;;17.03;;
15049;SDS011;7622;42.724;23.250;2023-03-24T05:16:11;27.50;;;17.67;;
15049;SDS011;7622;42.724;23.250;2023-03-24T05:18:39;29.83;;;18.23;;
15049;SDS011;7622;42.724;23.250;2023-03-24T05:21:06;26.73;;;18.20;;
15049;SDS011;7622;42.724;23.250;2023-03-24T05:23:33;29.27;;;18.60;;
15049;SDS011;7622;42.724;23.250;2023-03-24T05:26:00;26.70;;;18.37;;
15049;SDS011;7622;42.724;23.250;2023-03-24T05:28:27;31.10;;;19.23;;
15049;SDS011;7622;42.724;23.250;2023-03-24T05:30:54;34.50;;;19.10;;
15049;SDS011;7622;42.724;23.250;2023-03-24T05:33:20;36.33;;;18.63;;
15049;SDS011;7622;42.724;23.250;2023-03-24T05:35:48;32.03;;;21.40;;
15049;SDS011;7622;42.724;23.250;2023-03-24T05:38:15;36.23;;;19.30;;
15049;SDS011;7622;42.724;23.250;2023-03-24T05:40:42;37.57;;;20.17;;
15049;SDS011;7622;42.724;23.250;2023-03-24T05:43:09;35.30;;;19.47;;
15049;SDS011;7622;42.724;23.250;2023-03-24T05:45:36;37.00;;;19.53;;
15049;SDS011;7622;42.724;23.250;2023-03-24T05:48:03;39.53;;;19.57;;
15049;SDS011;7622;42.724;23.250;2023-03-24T05:50:30;32.47;;;20.07;;
15049;SDS011;7622;42.724;23.250;2023-03-24T05:52:58;36.70;;;19.27;;
15049;SDS011;7622;42.724;23.250;2023-03-24T05:55:26;26.57;;;17.53;;
15049;SDS011;7622;42.724;23.250;2023-03-24T05:57:52;38.83;;;17.63;;
15049;SDS011;7622;42.724;23.250;2023-03-24T06:00:19;35.87;;;19.93;;
15049;SDS011;7622;42.724;23.250;2023-03-24T06:02:47;33.40;;;20.43;;
15049;SDS011;7622;42.724;23.250;2023-03-24T06:05:14;41.17;;;21.43;;
15049;SDS011;7622;42.724;23.250;2023-03-24T06:07:41;32.40;;;20.40;;
15049;SDS011;7622;42.724;23.250;2023-03-24T06:10:10;50.33;;;21.90;;
15049;SDS011;7622;42.724;23.250;2023-03-24T06:12:38;34.50;;;20.70;;
15049;SDS011;7622;42.724;23.250;2023-03-24T06:15:06;41.87;;;23.10;;
15049;SDS011;7622;42.724;23.250;2023-03-24T06:17:34;34.60;;;21.10;;
15049;SDS011;7622;42.724;23.250;2023-03-24T06:20:01;41.77;;;21.03;;
15049;SDS011;7622;42.724;23.250;2023-03-24T06:22:30;40.67;;;21.43;;
15049;SDS011;7622;42.724;23.250;2023-03-24T06:24:58;31.20;;;21.73;;
15049;SDS011;7622;42.724;23.250;2023-03-24T06:27:28;37.03;;;20.57;;
15049;SDS011;7622;42.724;23.250;2023-03-24T06:29:55;31.07;;;20.63;;
15049;SDS011;7622;42.724;23.250;2023-03-24T06:32:22;35.93;;;21.53;;
15049;SDS011;7622;42.724;23.250;2023-03-24T06:34:49;36.70;;;21.27;;
15049;SDS011;7622;42.724;23.250;2023-03-24T06:37:16;33.93;;;20.23;;
15049;SDS011;7622;42.724;23.250;2023-03-24T06:39:43;35.10;;;20.77;;
15049;SDS011;7622;42.724;23.250;2023-03-24T06:42:10;37.43;;;21.67;;
15049;SDS011;7622;42.724;23.250;2023-03-24T06:44:38;34.83;;;20.40;;
15049;SDS011;7622;42.724;23.250;2023-03-24T06:47:05;34.07;;;20.03;;
15049;SDS011;7622;42.724;23.250;2023-03-24T06:49:32;37.07;;;20.10;;
15049;SDS011;7622;42.724;23.250;2023-03-24T06:52:02;28.80;;;19.53;;
15049;SDS011;7622;42.724;23.250;2023-03-24T06:54:32;31.10;;;20.40;;
15049;SDS011;7622;42.724;23.250;2023-03-24T06:57:01;30.83;;;19.30;;
15049;SDS011;7622;42.724;23.250;2023-03-24T06:59:27;28.70;;;20.27;;
15049;SDS011;7622;42.724;23.250;2023-03-24T07:01:55;41.20;;;19.90;;
15049;SDS011;7622;42.724;23.250;2023-03-24T07:04:22;32.97;;;20.67;;
15049;SDS011;7622;42.724;23.250;2023-03-24T07:06:51;31.00;;;21.27;;
15049;SDS011;7622;42.724;23.250;2023-03-24T07:09:18;30.87;;;19.20;;
15049;SDS011;7622;42.724;23.250;2023-03-24T07:11:45;27.93;;;20.13;;
15049;SDS011;7622;42.724;23.250;2023-03-24T07:14:12;34.87;;;19.60;;
15049;SDS011;7622;42.724;23.250;2023-03-24T07:16:38;27.47;;;19.03;;
15049;SDS011;7622;42.724;23.250;2023-03-24T07:19:07;33.93;;;19.00;;
15049;SDS011;7622;42.724;23.250;2023-03-24T07:21:33;27.50;;;19.27;;
15049;SDS011;7622;42.724;23.250;2023-03-24T07:24:00;29.93;;;19.83;;
15049;SDS011;7622;42.724;23.250;2023-03-24T07:26:27;26.83;;;18.80;;
15049;SDS011;7622;42.724;23.250;2023-03-24T07:28:57;26.33;;;17.90;;
15049;SDS011;7622;42.724;23.250;2023-03-24T07:31:26;32.73;;;18.83;;
15049;SDS011;7622;42.724;23.250;2023-03-24T07:33:53;25.20;;;17.67;;
15049;SDS011;7622;42.724;23.250;2023-03-24T07:36:21;27.07;;;18.10;;
15049;SDS011;7622;42.724;23.250;2023-03-24T07:38:48;28.03;;;17.47;;
15049;SDS011;7622;42.724;23.250;2023-03-24T07:41:15;18.63;;;15.07;;
15049;SDS011;7622;42.724;23.250;2023-03-24T07:43:41;21.03;;;15.53;;
15049;SDS011;7622;42.724;23.250;2023-03-24T07:46:08;21.47;;;15.97;;
15049;SDS011;7622;42.724;23.250;2023-03-24T07:48:35;27.13;;;17.70;;
15049;SDS011;7622;42.724;23.250;2023-03-24T07:51:02;24.17;;;18.97;;
15049;SDS011;7622;42.724;23.250;2023-03-24T07:53:31;23.77;;;18.37;;
15049;SDS011;7622;42.724;23.250;2023-03-24T07:56:00;25.03;;;18.00;;
15049;SDS011;7622;42.724;23.250;2023-03-24T07:58:30;31.47;;;19.83;;
15049;SDS011;7622;42.724;23.250;2023-03-24T08:00:56;25.83;;;18.40;;
15049;SDS011;7622;42.724;23.250;2023-03-24T08:03:23;22.07;;;17.33;;
15049;SDS011;7622;42.724;23.250;2023-03-24T08:05:51;27.83;;;18.53;;
15049;SDS011;7622;42.724;23.250;2023-03-24T08:08:19;24.43;;;17.73;;
15049;SDS011;7622;42.724;23.250;2023-03-24T08:10:47;21.17;;;16.13;;
15049;SDS011;7622;42.724;23.250;2023-03-24T08:13:15;20.50;;;15.33;;
15049;SDS011;7622;42.724;23.250;2023-03-24T08:15:42;22.70;;;13.73;;
15049;SDS011;7622;42.724;23.250;2023-03-24T08:18:10;30.73;;;18.50;;
15049;SDS011;7622;42.724;23.250;2023-03-24T08:20:37;25.17;;;18.20;;
15049;SDS011;7622;42.724;23.250;2023-03-24T08:23:03;28.77;;;19.00;;
15049;SDS011;7622;42.724;23.250;2023-03-24T08:25:33;25.57;;;17.40;;
15049;SDS011;7622;42.724;23.250;2023-03-24T08:28:01;23.33;;;18.30;;
15049;SDS011;7622;42.724;23.250;2023-03-24T08:30:28;29.57;;;18.27;;
15049;SDS011;7622;42.724;23.250;2023-03-24T08:32:56;24.07;;;17.07;;
15049;SDS011;7622;42.724;23.250;2023-03-24T08:35:25;22.63;;;16.57;;
15049;SDS011;7622;42.724;23.250;2023-03-24T08:37:53;21.53;;;15.90;;
15049;SDS011;7622;42.724;23.250;2023-03-24T08:40:20;20.40;;;16.00;;
15049;SDS011;7622;42.724;23.250;2023-03-24T08:42:49;27.17;;;16.97;;
15049;SDS011;7622;42.724;23.250;2023-03-24T08:45:18;23.20;;;19.07;;
15049;SDS011;7622;42.724;23.250;2023-03-24T08:47:47;27.43;;;17.93;;
15049;SDS011;7622;42.724;23.250;2023-03-24T08:50:16;22.03;;;17.23;;
15049;SDS011;7622;42.724;23.250;2023-03-24T08:52:44;29.73;;;17.23;;
15049;SDS011;7622;42.724;23.250;2023-03-24T08:55:12;24.43;;;16.57;;
15049;SDS011;7622;42.724;23.250;2023-03-24T08:57:39;23.30;;;17.17;;
15049;SDS011;7622;42.724;23.250;2023-03-24T09:00:06;32.77;;;18.03;;
15049;SDS011;7622;42.724;23.250;2023-03-24T09:02:40;26.27;;;17.20;;
15049;SDS011;7622;42.724;23.250;2023-03-24T09:05:07;29.30;;;17.13;;
15049;SDS011;7622;42.724;23.250;2023-03-24T09:07:35;26.53;;;16.03;;
15049;SDS011;7622;42.724;23.250;2023-03-24T09:10:02;22.27;;;16.60;;
15049;SDS011;7622;42.724;23.250;2023-03-24T09:12:30;25.70;;;15.30;;
15049;SDS011;7622;42.724;23.250;2023-03-24T09:14:57;25.00;;;15.60;;
15049;SDS011;7622;42.724;23.250;2023-03-24T09:17:23;20.03;;;15.07;;
15049;SDS011;7622;42.724;23.250;2023-03-24T09:19:51;23.00;;;15.67;;
15049;SDS011;7622;42.724;23.250;2023-03-24T09:22:19;26.63;;;16.90;;
15049;SDS011;7622;42.724;23.250;2023-03-24T09:24:46;21.57;;;15.13;;
15049;SDS011;7622;42.724;23.250;2023-03-24T09:27:13;21.53;;;16.13;;
15049;SDS011;7622;42.724;23.250;2023-03-24T09:29:40;24.63;;;16.87;;
15049;SDS011;7622;42.724;23.250;2023-03-24T09:32:07;23.10;;;16.17;;
15049;SDS011;7622;42.724;23.250;2023-03-24T09:34:34;21.07;;;15.13;;
15049;SDS011;7622;42.724;23.250;2023-03-24T09:37:03;23.20;;;16.33;;
15049;SDS011;7622;42.724;23.250;2023-03-24T09:39:31;23.90;;;15.63;;
15049;SDS011;7622;42.724;23.250;2023-03-24T09:42:00;20.60;;;15.90;;
15049;SDS011;7622;42.724;23.250;2023-03-24T09:44:30;24.03;;;15.67;;
15049;SDS011;7622;42.724;23.250;2023-03-24T09:46:59;21.47;;;15.03;;
15049;SDS011;7622;42.724;23.250;2023-03-24T09:49:32;25.20;;;15.33;;
15049;SDS011;7622;42.724;23.250;2023-03-24T09:52:05;17.97;;;14.37;;
15049;SDS011;7622;42.724;23.250;2023-03-24T09:54:35;22.10;;;16.47;;
15049;SDS011;7622;42.724;23.250;2023-03-24T09:57:10;25.30;;;15.40;;
15049;SDS011;7622;42.724;23.250;2023-03-24T09:59:46;26.03;;;14.73;;
15049;SDS011;7622;42.724;23.250;2023-03-24T10:02:13;20.03;;;15.37;;
15049;SDS011;7622;42.724;23.250;2023-03-24T10:04:42;15.87;;;14.00;;
15049;SDS011;7622;42.724;23.250;2023-03-24T10:07:12;36.93;;;14.87;;
15049;SDS011;7622;42.724;23.250;2023-03-24T10:09:44;22.87;;;13.53;;
15049;SDS011;7622;42.724;23.250;2023-03-24T10:12:18;18.60;;;12.50;;
15049;SDS011;7622;42.724;23.250;2023-03-24T10:14:55;18.57;;;12.70;;
15049;SDS011;7622;42.724;23.250;2023-03-24T10:17:32;12.97;;;11.37;;
15049;SDS011;7622;42.724;23.250;2023-03-24T10:20:14;14.77;;;11.23;;
15049;SDS011;7622;42.724;23.250;2023-03-24T10:22:57;22.77;;;11.40;;
15049;SDS011;7622;42.724;23.250;2023-03-24T10:25:32;17.03;;;11.03;;
15049;SDS011;7622;42.724;23.250;2023-03-24T10:28:08;13.47;;;10.07;;
15049;SDS011;7622;42.724;23.250;2023-03-24T10:30:41;13.33;;;9.27;;
15049;SDS011;7622;42.724;23.250;2023-03-24T10:33:10;10.13;;;8.30;;
15049;SDS011;7622;42.724;23.250;2023-03-24T10:35:38;8.80;;;7.93;;
15049;SDS011;7622;42.724;23.250;2023-03-24T10:38:12;16.27;;;7.20;;
15049;SDS011;7622;42.724;23.250;2023-03-24T10:40:42;11.07;;;7.03;;
15049;SDS011;7622;42.724;23.250;2023-03-24T10:45:56;6.73;;;6.10;;
15049;SDS011;7622;42.724;23.250;2023-03-24T10:51:17;8.90;;;7.43;;
15049;SDS011;7622;42.724;23.250;2023-03-24T10:53:47;8.27;;;7.47;;
15049;SDS011;7622;42.724;23.250;2023-03-24T10:56:15;8.37;;;7.57;;
15049;SDS011;7622;42.724;23.250;2023-03-24T10:58:43;12.10;;;6.80;;
15049;SDS011;7622;42.724;23.250;2023-03-24T11:01:19;9.67;;;6.77;;
15049;SDS011;7622;42.724;23.250;2023-03-24T11:03:50;6.43;;;5.80;;
15049;SDS011;7622;42.724;23.250;2023-03-24T11:06:18;7.63;;;4.77;;
15049;SDS011;7622;42.724;23.250;2023-03-24T11:08:47;6.80;;;5.80;;
15049;SDS011;7622;42.724;23.250;2023-03-24T11:11:35;5.83;;;5.30;;
15049;SDS011;7622;42.724;23.250;2023-03-24T11:14:02;5.37;;;4.97;;
15049;SDS011;7622;42.724;23.250;2023-03-24T11:16:42;5.00;;;4.53;;
15049;SDS011;7622;42.724;23.250;2023-03-24T11:19:16;4.37;;;3.97;;
15049;SDS011;7622;42.724;23.250;2023-03-24T11:21:44;5.03;;;4.50;;
15049;SDS011;7622;42.724;23.250;2023-03-24T11:24:20;3.90;;;3.60;;
15049;SDS011;7622;42.724;23.250;2023-03-24T11:26:49;4.03;;;3.70;;
15049;SDS011;7622;42.724;23.250;2023-03-24T11:29:23;8.70;;;4.70;;
15049;SDS011;7622;42.724;23.250;2023-03-24T11:31:52;16.70;;;4.27;;
15049;SDS011;7622;42.724;23.250;2023-03-24T11:34:21;9.50;;;3.90;;
15049;SDS011;7622;42.724;23.250;2023-03-24T11:36:51;9.10;;;3.87;;
15049;SDS011;7622;42.724;23.250;2023-03-24T11:39:22;4.63;;;4.00;;
15049;SDS011;7622;42.724;23.250;2023-03-24T11:41:53;3.57;;;3.27;;
15049;SDS011;7622;42.724;23.250;2023-03-24T11:44:28;4.70;;;3.13;;
15049;SDS011;7622;42.724;23.250;2023-03-24T11:46:57;2.90;;;2.70;;
15049;SDS011;7622;42.724;23.250;2023-03-24T11:49:29;2.83;;;2.63;;
15049;SDS011;7622;42.724;23.250;2023-03-24T11:51:58;4.00;;;3.30;;
15049;SDS011;7622;42.724;23.250;2023-03-24T11:54:30;4.00;;;3.10;;
15049;SDS011;7622;42.724;23.250;2023-03-24T11:57:02;4.47;;;2.83;;
15049;SDS011;7622;42.724;23.250;2023-03-24T11:59:33;3.23;;;3.00;;
15049;SDS011;7622;42.724;23.250;2023-03-24T12:02:11;2.93;;;2.57;;
15049;SDS011;7622;42.724;23.250;2023-03-24T12:05:03;2.67;;;2.13;;
15049;SDS011;7622;42.724;23.250;2023-03-24T12:07:58;2.67;;;2.23;;
15049;SDS011;7622;42.724;23.250;2023-03-24T12:10:38;6.27;;;3.13;;
15049;SDS011;7622;42.724;23.250;2023-03-24T12:13:12;4.23;;;3.30;;
15049;SDS011;7622;42.724;23.250;2023-03-24T12:15:48;3.40;;;3.10;;
15049;SDS011;7622;42.724;23.250;2023-03-24T12:18:31;3.50;;;3.20;;
15049;SDS011;7622;42.724;23.250;2023-03-24T12:21:09;8.43;;;3.30;;
15049;SDS011;7622;42.724;23.250;2023-03-24T12:23:45;4.33;;;3.13;;
15049;SDS011;7622;42.724;23.250;2023-03-24T12:26:20;3.77;;;3.40;;
15049;SDS011;7622;42.724;23.250;2023-03-24T12:29:01;6.27;;;3.13;;
15049;SDS011;7622;42.724;23.250;2023-03-24T12:31:46;3.30;;;3.10;;
15049;SDS011;7622;42.724;23.250;2023-03-24T12:37:15;3.57;;;3.30;;
15049;SDS011;7622;42.724;23.250;2023-03-24T12:39:50;4.10;;;3.70;;
15049;SDS011;7622;42.724;23.250;2023-03-24T12:42:24;3.67;;;3.37;;
15049;SDS011;7622;42.724;23.250;2023-03-24T12:45:01;3.13;;;2.90;;
15049;SDS011;7622;42.724;23.250;2023-03-24T12:47:47;3.53;;;3.10;;
15049;SDS011;7622;42.724;23.250;2023-03-24T12:50:36;3.80;;;3.50;;
15049;SDS011;7622;42.724;23.250;2023-03-24T12:53:23;3.70;;;2.73;;
15049;SDS011;7622;42.724;23.250;2023-03-24T12:56:08;3.37;;;2.43;;
15049;SDS011;7622;42.724;23.250;2023-03-24T12:58:40;3.83;;;2.40;;
15049;SDS011;7622;42.724;23.250;2023-03-24T13:01:12;3.30;;;3.00;;
15049;SDS011;7622;42.724;23.250;2023-03-24T13:03:45;3.23;;;2.93;;
15049;SDS011;7622;42.724;23.250;2023-03-24T13:06:16;10.83;;;3.20;;
15049;SDS011;7622;42.724;23.250;2023-03-24T13:08:51;6.10;;;3.27;;
15049;SDS011;7622;42.724;23.250;2023-03-24T13:11:32;2.93;;;2.70;;
15049;SDS011;7622;42.724;23.250;2023-03-24T13:14:03;4.43;;;2.77;;
15049;SDS011;7622;42.724;23.250;2023-03-24T13:16:37;3.33;;;2.77;;
15049;SDS011;7622;42.724;23.250;2023-03-24T13:19:06;3.10;;;2.77;;
15049;SDS011;7622;42.724;23.250;2023-03-24T13:21:42;4.60;;;2.90;;
15049;SDS011;7622;42.724;23.250;2023-03-24T13:24:10;3.23;;;2.93;;
15049;SDS011;7622;42.724;23.250;2023-03-24T13:26:38;6.53;;;3.30;;
15049;SDS011;7622;42.724;23.250;2023-03-24T13:29:15;3.90;;;2.80;;
15049;SDS011;7622;42.724;23.250;2023-03-24T13:31:53;3.17;;;2.70;;
15049;SDS011;7622;42.724;23.250;2023-03-24T13:34:26;3.40;;;3.17;;
15049;SDS011;7622;42.724;23.250;2023-03-24T13:36:58;3.80;;;3.50;;
15049;SDS011;7622;42.724;23.250;2023-03-24T13:39:27;3.40;;;3.10;;
15049;SDS011;7622;42.724;23.250;2023-03-24T13:41:57;3.80;;;2.90;;
15049;SDS011;7622;42.724;23.250;2023-03-24T13:44:29;5.13;;;3.10;;
15049;SDS011;7622;42.724;23.250;2023-03-24T13:47:07;4.20;;;3.00;;
15049;SDS011;7622;42.724;23.250;2023-03-24T13:49:37;22.17;;;4.43;;
15049;SDS011;7622;42.724;23.250;2023-03-24T13:52:06;4.97;;;2.67;;
15049;SDS011;7622;42.724;23.250;2023-03-24T13:54:55;3.70;;;3.33;;
15049;SDS011;7622;42.724;23.250;2023-03-24T13:57:24;10.67;;;3.00;;
15049;SDS011;7622;42.724;23.250;2023-03-24T13:59:58;9.37;;;3.40;;
15049;SDS011;7622;42.724;23.250;2023-03-24T14:02:40;3.27;;;2.87;;
15049;SDS011;7622;42.724;23.250;2023-03-24T14:05:10;3.47;;;3.17;;
15049;SDS011;7622;42.724;23.250;2023-03-24T14:08:08;5.33;;;3.13;;
15049;SDS011;7622;42.724;23.250;2023-03-24T14:10:41;3.93;;;3.40;;
15049;SDS011;7622;42.724;23.250;2023-03-24T14:13:22;6.23;;;4.67;;
15049;SDS011;7622;42.724;23.250;2023-03-24T14:16:24;6.63;;;3.27;;
15049;SDS011;7622;42.724;23.250;2023-03-24T14:19:07;6.27;;;4.50;;
15049;SDS011;7622;42.724;23.250;2023-03-24T14:21:50;21.50;;;6.17;;
15049;SDS011;7622;42.724;23.250;2023-03-24T14:24:31;8.07;;;3.37;;
15049;SDS011;7622;42.724;23.250;2023-03-24T14:26:58;3.20;;;2.90;;
15049;SDS011;7622;42.724;23.250;2023-03-24T14:29:34;3.90;;;3.50;;
15049;SDS011;7622;42.724;23.250;2023-03-24T14:32:05;9.13;;;4.43;;
15049;SDS011;7622;42.724;23.250;2023-03-24T14:34:32;3.77;;;3.43;;
15049;SDS011;7622;42.724;23.250;2023-03-24T14:37:02;3.43;;;3.13;;
15049;SDS011;7622;42.724;23.250;2023-03-24T14:39:34;4.97;;;3.00;;
15049;SDS011;7622;42.724;23.250;2023-03-24T14:48:19;8.17;;;3.17;;
15049;SDS011;7622;42.724;23.250;2023-03-24T14:50:52;4.13;;;3.43;;
15049;SDS011;7622;42.724;23.250;2023-03-24T14:53:20;6.27;;;3.00;;
15049;SDS011;7622;42.724;23.250;2023-03-24T14:55:48;9.00;;;2.93;;
15049;SDS011;7622;42.724;23.250;2023-03-24T14:58:17;4.87;;;2.77;;
15049;SDS011;7622;42.724;23.250;2023-03-24T15:00:49;6.83;;;3.07;;
15049;SDS011;7622;42.724;23.250;2023-03-24T15:03:23;6.60;;;2.60;;
15049;SDS011;7622;42.724;23.250;2023-03-24T15:06:02;8.10;;;2.93;;
15049;SDS011;7622;42.724;23.250;2023-03-24T15:08:38;23.07;;;9.40;;
15049;SDS011;7622;42.724;23.250;2023-03-24T15:11:12;5.67;;;3.67;;
15049;SDS011;7622;42.724;23.250;2023-03-24T15:13:44;5.60;;;3.43;;
15049;SDS011;7622;42.724;23.250;2023-03-24T15:16:18;6.63;;;2.93;;
15049;SDS011;7622;42.724;23.250;2023-03-24T15:18:49;6.53;;;3.20;;
15049;SDS011;7622;42.724;23.250;2023-03-24T15:21:22;5.07;;;2.97;;